Time,TemperatureF,DewpointF,PressureIn,WindDirection,WindDirectionDegrees,WindSpeedMPH,WindSpeedGustMPH,Humidity,HourlyPrecipIn,Conditions,Clouds,dailyrainin,SoftwareType,DateUTC
2013-05-08 00:01:00,33.2,16.0,30.23,West,269,0.0,0.0,49,0.00,,,0.00,weatherlink.com 1.10,2013-05-08 08:01:00,
2013-05-08 00:16:00,32.5,16.0,30.23,West,269,0.0,0.0,51,0.00,,,0.00,weatherlink.com 1.10,2013-05-08 08:16:00,
2013-05-08 00:31:00,32.7,16.0,30.23,West,269,0.0,0.0,51,0.00,,,0.00,weatherlink.com 1.10,2013-05-08 08:31:00,
2013-05-08 00:46:00,33.0,16.0,30.23,West,269,0.0,0.0,50,0.00,,,0.00,weatherlink.com 1.10,2013-05-08 08:46:00,
2013-05-08 01:01:00,32.6,16.0,30.24,West,269,0.0,0.0,50,0.00,,,0.00,weatherlink.com 1.10,2013-05-08 09:01:00,
2013-05-08 01:16:00,32.7,16.0,30.24,West,269,0.0,0.0,50,0.00,,,0.00,weatherlink.com 1.10,2013-05-08 09:16:00,
2013-05-08 01:31:00,32.9,15.0,30.24,West,269,0.0,0.0,49,0.00,,,0.00,weatherlink.com 1.10,2013-05-08 09:31:00,
2013-05-08 01:46:00,32.8,16.0,30.24,West,269,0.0,0.0,50,0.00,,,0.00,weatherlink.com 1.10,2013-05-08 09:46:00,
2013-05-08 02:01:00,32.5,16.0,30.24,West,269,0.0,0.0,50,0.00,,,0.00,weatherlink.com 1.10,2013-05-08 10:01:00,
2013-05-08 02:16:00,31.2,15.0,30.24,West,269,0.0,0.0,52,0.00,,,0.00,weatherlink.com 1.10,2013-05-08 10:16:00,
2013-05-08 02:32:00,32.0,16.0,30.24,East,98,0.0,1.0,53,0.00,,,0.00,weatherlink.com 1.10,2013-05-08 10:32:00,
2013-05-08 02:47:00,31.8,16.0,30.24,East,96,2.0,2.0,52,0.00,,,0.00,weatherlink.com 1.10,2013-05-08 10:47:00,
2013-05-08 03:02:00,31.6,16.0,30.24,NE,56,0.0,1.0,52,0.00,,,0.00,weatherlink.com 1.10,2013-05-08 11:02:00,
2013-05-08 03:17:00,31.6,16.0,30.24,NE,56,0.0,0.0,52,0.00,,,0.00,weatherlink.com 1.10,2013-05-08 11:17:00,
2013-05-08 03:32:00,31.5,16.0,30.24,NE,56,0.0,0.0,52,0.00,,,0.00,weatherlink.com 1.10,2013-05-08 11:32:00,
2013-05-08 03:47:00,31.0,16.0,30.24,NE,56,2.0,4.0,55,0.00,,,0.00,weatherlink.com 1.10,2013-05-08 11:47:00,
2013-05-08 04:02:00,31.9,16.0,30.24,ENE,78,2.0,3.0,53,0.00,,,0.00,weatherlink.com 1.10,2013-05-08 12:02:00,
2013-05-08 04:17:00,31.9,16.0,30.25,SE,129,0.0,3.0,53,0.00,,,0.00,weatherlink.com 1.10,2013-05-08 12:17:00,
2013-05-08 04:32:00,32.0,16.0,30.24,ENE,61,3.0,3.0,52,0.00,,,0.00,weatherlink.com 1.10,2013-05-08 12:32:00,
2013-05-08 04:47:00,32.3,16.0,30.24,ENE,58,1.0,2.0,52,0.00,,,0.00,weatherlink.com 1.10,2013-05-08 12:47:00,
2013-05-08 05:02:00,31.3,16.0,30.24,East,89,1.0,3.0,54,0.00,,,0.00,weatherlink.com 1.10,2013-05-08 13:02:00,
2013-05-08 05:17:00,31.0,16.0,30.25,ESE,120,1.0,2.0,54,0.00,,,0.00,weatherlink.com 1.10,2013-05-08 13:17:00,
2013-05-08 05:32:00,30.6,16.0,30.25,ESE,110,1.0,3.0,56,0.00,,,0.00,weatherlink.com 1.10,2013-05-08 13:32:00,
2013-05-08 05:47:00,32.0,17.0,30.25,ESE,120,0.0,1.0,54,0.00,,,0.00,weatherlink.com 1.10,2013-05-08 13:47:00,
2013-05-08 06:02:00,33.8,17.0,30.25,ESE,120,0.0,0.0,51,0.00,,,0.00,weatherlink.com 1.10,2013-05-08 14:02:00,
2013-05-08 06:17:00,35.2,18.0,30.25,ESE,120,0.0,0.0,49,0.00,,,0.00,weatherlink.com 1.10,2013-05-08 14:17:00,
2013-05-08 06:32:00,35.2,18.0,30.25,East,100,1.0,1.0,49,0.00,,,0.00,weatherlink.com 1.10,2013-05-08 14:32:00,
2013-05-08 06:47:00,33.3,18.0,30.25,SE,125,0.0,3.0,53,0.00,,,0.00,weatherlink.com 1.10,2013-05-08 14:47:00,
2013-05-08 07:02:00,33.5,18.0,30.26,ESE,117,1.0,2.0,53,0.00,,,0.00,weatherlink.com 1.10,2013-05-08 15:02:00,
2013-05-08 07:17:00,33.2,18.0,30.26,ESE,118,1.0,3.0,54,0.00,,,0.00,weatherlink.com 1.10,2013-05-08 15:17:00,
2013-05-08 07:32:00,33.2,18.0,30.26,ESE,104,0.0,3.0,55,0.00,,,0.00,weatherlink.com 1.10,2013-05-08 15:32:00,
2013-05-08 07:47:00,33.6,18.0,30.26,East,86,2.0,3.0,54,0.00,,,0.00,weatherlink.com 1.10,2013-05-08 15:47:00,
2013-05-08 08:02:00,33.1,18.0,30.26,SE,136,1.0,3.0,55,0.00,,,0.00,weatherlink.com 1.10,2013-05-08 16:02:00,
2013-05-08 08:17:00,34.2,19.0,30.26,East,101,2.0,3.0,53,0.00,,,0.00,weatherlink.com 1.10,2013-05-08 16:17:00,
2013-05-08 08:32:00,35.2,19.0,30.27,SE,133,0.0,3.0,53,0.00,,,0.00,weatherlink.com 1.10,2013-05-08 16:32:00,
2013-05-08 08:47:00,35.5,19.0,30.27,ESE,113,1.0,4.0,51,0.00,,,0.00,weatherlink.com 1.10,2013-05-08 16:47:00,
2013-05-08 09:02:00,36.7,20.0,30.26,SE,134,2.0,3.0,52,0.00,,,0.00,weatherlink.com 1.10,2013-05-08 17:02:00,
2013-05-08 09:17:00,35.7,19.0,30.26,ENE,73,4.0,6.0,51,0.00,,,0.00,weatherlink.com 1.10,2013-05-08 17:17:00,
2013-05-08 09:32:00,35.8,19.0,30.26,East,96,2.0,3.0,51,0.00,,,0.00,weatherlink.com 1.10,2013-05-08 17:32:00,
2013-05-08 09:47:00,38.1,20.0,30.26,SSE,160,0.0,3.0,48,0.00,,,0.00,weatherlink.com 1.10,2013-05-08 17:47:00,
2013-05-08 10:02:00,39.3,20.0,30.26,SSE,149,0.0,4.0,46,0.00,,,0.00,weatherlink.com 1.10,2013-05-08 18:02:00,
2013-05-08 10:17:00,40.2,20.0,30.27,SE,145,2.0,4.0,45,0.00,,,0.00,weatherlink.com 1.10,2013-05-08 18:17:00,
2013-05-08 10:32:00,40.0,20.0,30.27,ENE,71,3.0,5.0,44,0.00,,,0.00,weatherlink.com 1.10,2013-05-08 18:32:00,
2013-05-08 10:47:00,40.0,22.0,30.27,WSW,257,0.0,5.0,48,0.00,,,0.00,weatherlink.com 1.10,2013-05-08 18:47:00,
2013-05-08 11:02:00,41.9,20.0,30.27,NNW,342,2.0,3.0,41,0.00,,,0.00,weatherlink.com 1.10,2013-05-08 19:02:00,
2013-05-08 11:17:00,42.8,20.0,30.27,ESE,120,1.0,3.0,41,0.00,,,0.00,weatherlink.com 1.10,2013-05-08 19:17:00,
2013-05-08 11:32:00,43.4,20.0,30.27,ENE,66,3.0,5.0,40,0.00,,,0.00,weatherlink.com 1.10,2013-05-08 19:32:00,
2013-05-08 11:47:00,42.2,20.0,30.27,ESE,117,2.0,7.0,42,0.00,,,0.00,weatherlink.com 1.10,2013-05-08 19:47:00,
2013-05-08 12:03:00,42.9,21.0,30.27,ESE,117,4.0,5.0,41,0.00,,,0.00,weatherlink.com 1.10,2013-05-08 20:03:00,
2013-05-08 12:18:00,44.6,21.0,30.27,SE,146,1.0,7.0,39,0.00,,,0.00,weatherlink.com 1.10,2013-05-08 20:18:00,
2013-05-08 12:33:00,46.0,20.0,30.27,ESE,113,0.0,5.0,35,0.00,,,0.00,weatherlink.com 1.10,2013-05-08 20:33:00,
2013-05-08 12:48:00,47.3,20.0,30.27,ESE,123,4.0,5.0,34,0.00,,,0.00,weatherlink.com 1.10,2013-05-08 20:48:00,
2013-05-08 13:03:00,46.2,21.0,30.26,SSE,155,2.0,9.0,37,0.00,,,0.00,weatherlink.com 1.10,2013-05-08 21:03:00,
2013-05-08 13:18:00,47.4,21.0,30.26,SSE,165,3.0,7.0,36,0.00,,,0.00,weatherlink.com 1.10,2013-05-08 21:18:00,
2013-05-08 13:33:00,47.0,20.0,30.27,SSW,201,1.0,8.0,34,0.00,,,0.00,weatherlink.com 1.10,2013-05-08 21:33:00,
2013-05-08 13:48:00,47.2,16.0,30.26,WSW,255,4.0,7.0,29,0.00,,,0.00,weatherlink.com 1.10,2013-05-08 21:48:00,
2013-05-08 14:03:00,47.3,16.0,30.26,WSW,245,2.0,7.0,29,0.00,,,0.00,weatherlink.com 1.10,2013-05-08 22:03:00,
2013-05-08 14:18:00,47.3,16.0,30.27,West,280,3.0,6.0,28,0.00,,,0.00,weatherlink.com 1.10,2013-05-08 22:18:00,
2013-05-08 14:33:00,48.1,18.0,30.27,West,267,2.0,13.0,30,0.00,,,0.00,weatherlink.com 1.10,2013-05-08 22:33:00,
2013-05-08 14:48:00,48.6,17.0,30.27,SSE,152,1.0,11.0,29,0.00,,,0.00,weatherlink.com 1.10,2013-05-08 22:48:00,
2013-05-08 15:03:00,49.6,19.0,30.27,West,266,4.0,5.0,30,0.00,,,0.00,weatherlink.com 1.10,2013-05-08 23:03:00,
2013-05-08 15:18:00,49.1,18.0,30.27,WNW,300,2.0,13.0,29,0.00,,,0.00,weatherlink.com 1.10,2013-05-08 23:18:00,
2013-05-08 15:33:00,48.7,18.0,30.27,NW,315,8.0,10.0,29,0.00,,,0.00,weatherlink.com 1.10,2013-05-08 23:33:00,
2013-05-08 15:48:00,48.3,18.0,30.27,WSW,257,3.0,10.0,30,0.00,,,0.00,weatherlink.com 1.10,2013-05-08 23:48:00,
2013-05-08 16:03:00,49.2,19.0,30.28,WSW,245,0.0,6.0,30,0.00,,,0.00,weatherlink.com 1.10,2013-05-09 00:03:00,
2013-05-08 16:18:00,49.1,18.0,30.28,WSW,248,1.0,6.0,29,0.00,,,0.00,weatherlink.com 1.10,2013-05-09 00:18:00,
2013-05-08 16:33:00,49.2,16.0,30.28,WSW,255,4.0,9.0,27,0.00,,,0.00,weatherlink.com 1.10,2013-05-09 00:33:00,
2013-05-08 16:48:00,49.3,17.0,30.28,NW,314,4.0,7.0,28,0.00,,,0.00,weatherlink.com 1.10,2013-05-09 00:48:00,
2013-05-08 17:03:00,48.3,19.0,30.28,West,272,10.0,13.0,31,0.00,,,0.00,weatherlink.com 1.10,2013-05-09 01:03:00,
2013-05-08 17:18:00,48.6,17.0,30.27,NW,311,8.0,13.0,28,0.00,,,0.00,weatherlink.com 1.10,2013-05-09 01:18:00,
2013-05-08 17:33:00,48.9,19.0,30.27,WNW,297,4.0,13.0,30,0.00,,,0.00,weatherlink.com 1.10,2013-05-09 01:33:00,
2013-05-08 17:48:00,48.5,18.0,30.27,SW,226,2.0,8.0,30,0.00,,,0.00,weatherlink.com 1.10,2013-05-09 01:48:00,
2013-05-08 18:04:00,49.1,19.0,30.28,West,271,2.0,6.0,30,0.00,,,0.00,weatherlink.com 1.10,2013-05-09 02:04:00,
2013-05-08 18:18:00,49.2,20.0,30.28,WSW,248,3.0,7.0,31,0.00,,,0.00,weatherlink.com 1.10,2013-05-09 02:18:00,
2013-05-08 18:33:00,49.8,22.0,30.28,West,266,2.0,7.0,33,0.00,,,0.00,weatherlink.com 1.10,2013-05-09 02:33:00,
2013-05-08 18:48:00,49.4,20.0,30.28,WNW,296,4.0,8.0,31,0.00,,,0.00,weatherlink.com 1.10,2013-05-09 02:48:00,
2013-05-08 19:03:00,49.0,19.0,30.28,WSW,252,1.0,6.0,31,0.00,,,0.00,weatherlink.com 1.10,2013-05-09 03:03:00,
2013-05-08 19:18:00,49.0,20.0,30.28,WNW,294,0.0,3.0,32,0.00,,,0.00,weatherlink.com 1.10,2013-05-09 03:18:00,
2013-05-08 19:33:00,48.4,20.0,30.28,WNW,284,0.0,7.0,33,0.00,,,0.00,weatherlink.com 1.10,2013-05-09 03:33:00,
2013-05-08 19:48:00,48.8,19.0,30.28,WSW,256,0.0,4.0,31,0.00,,,0.00,weatherlink.com 1.10,2013-05-09 03:48:00,
2013-05-08 20:03:00,49.0,21.0,30.28,WNW,290,1.0,3.0,33,0.00,,,0.00,weatherlink.com 1.10,2013-05-09 04:03:00,
2013-05-08 20:18:00,47.4,21.0,30.28,West,278,1.0,5.0,36,0.00,,,0.00,weatherlink.com 1.10,2013-05-09 04:18:00,
2013-05-08 20:33:00,46.1,20.0,30.29,West,264,3.0,5.0,35,0.00,,,0.00,weatherlink.com 1.10,2013-05-09 04:33:00,
2013-05-08 20:48:00,45.4,20.0,30.29,West,259,1.0,3.0,37,0.00,,,0.00,weatherlink.com 1.10,2013-05-09 04:48:00,
2013-05-08 21:03:00,45.4,20.0,30.29,West,266,0.0,3.0,37,0.00,,,0.00,weatherlink.com 1.10,2013-05-09 05:03:00,
2013-05-08 21:18:00,45.1,21.0,30.29,West,274,2.0,4.0,39,0.00,,,0.00,weatherlink.com 1.10,2013-05-09 05:18:00,
2013-05-08 21:33:00,44.5,21.0,30.30,WSW,257,0.0,2.0,40,0.00,,,0.00,weatherlink.com 1.10,2013-05-09 05:33:00,
2013-05-08 21:48:00,43.4,20.0,30.30,West,264,0.0,1.0,40,0.00,,,0.00,weatherlink.com 1.10,2013-05-09 05:48:00,
2013-05-08 22:03:00,41.1,19.0,30.30,West,264,0.0,0.0,42,0.00,,,0.00,weatherlink.com 1.10,2013-05-09 06:03:00,
2013-05-08 22:18:00,39.6,19.0,30.30,West,264,0.0,0.0,44,0.00,,,0.00,weatherlink.com 1.10,2013-05-09 06:18:00,
2013-05-08 22:33:00,38.0,19.0,30.31,West,265,0.0,0.0,47,0.00,,,0.00,weatherlink.com 1.10,2013-05-09 06:33:00,
2013-05-08 22:48:00,39.1,22.0,30.31,NNW,334,1.0,4.0,51,0.00,,,0.00,weatherlink.com 1.10,2013-05-09 06:48:00,
2013-05-08 23:03:00,38.6,23.0,30.32,NNW,345,0.0,3.0,53,0.00,,,0.00,weatherlink.com 1.10,2013-05-09 07:03:00,
2013-05-08 23:18:00,38.2,23.0,30.32,NNE,29,2.0,4.0,55,0.00,,,0.00,weatherlink.com 1.10,2013-05-09 07:18:00,
2013-05-08 23:33:00,38.0,23.0,30.32,NE,44,1.0,4.0,56,0.00,,,0.00,weatherlink.com 1.10,2013-05-09 07:33:00,
2013-05-08 23:48:00,38.1,23.0,30.33,North,358,1.0,3.0,55,0.00,,,0.00,weatherlink.com 1.10,2013-05-09 07:48:00,